sensor_id;sensor_type;location;lat;lon;timestamp;P1;durP1;ratioP1;P2;durP2;ratioP2
25509;SDS011;13413;52.336;21.200;2022-07-24T00:00:09;22.20;;;19.90;;
25509;SDS011;13413;52.336;21.200;2022-07-24T00:03:28;20.40;;;18.40;;
25509;SDS011;13413;52.336;21.200;2022-07-24T00:06:49;21.00;;;19.00;;
25509;SDS011;13413;52.336;21.200;2022-07-24T00:10:10;20.90;;;18.80;;
25509;SDS011;13413;52.336;21.200;2022-07-24T00:15:28;21.10;;;19.00;;
25509;SDS011;13413;52.336;21.200;2022-07-24T00:18:47;22.90;;;20.50;;
25509;SDS011;13413;52.336;21.200;2022-07-24T00:22:06;23.00;;;20.70;;
25509;SDS011;13413;52.336;21.200;2022-07-24T00:25:24;23.30;;;20.80;;
25509;SDS011;13413;52.336;21.200;2022-07-24T00:28:43;22.00;;;19.90;;
25509;SDS011;13413;52.336;21.200;2022-07-24T00:32:02;22.50;;;20.10;;
25509;SDS011;13413;52.336;21.200;2022-07-24T00:35:22;23.20;;;21.00;;
25509;SDS011;13413;52.336;21.200;2022-07-24T00:38:41;24.50;;;21.70;;
25509;SDS011;13413;52.336;21.200;2022-07-24T00:42:01;26.30;;;22.80;;
25509;SDS011;13413;52.336;21.200;2022-07-24T00:45:20;26.70;;;23.90;;
25509;SDS011;13413;52.336;21.200;2022-07-24T00:48:40;27.80;;;23.80;;
25509;SDS011;13413;52.336;21.200;2022-07-24T00:52:00;28.50;;;24.40;;
25509;SDS011;13413;52.336;21.200;2022-07-24T00:55:21;27.20;;;23.90;;
25509;SDS011;13413;52.336;21.200;2022-07-24T00:58:42;26.20;;;23.60;;
25509;SDS011;13413;52.336;21.200;2022-07-24T01:02:01;26.30;;;23.50;;
25509;SDS011;13413;52.336;21.200;2022-07-24T01:05:20;27.90;;;23.30;;
25509;SDS011;13413;52.336;21.200;2022-07-24T01:08:40;25.50;;;22.80;;
25509;SDS011;13413;52.336;21.200;2022-07-24T01:12:01;27.00;;;22.10;;
25509;SDS011;13413;52.336;21.200;2022-07-24T01:15:21;27.70;;;24.10;;
25509;SDS011;13413;52.336;21.200;2022-07-24T01:18:41;25.90;;;23.00;;
25509;SDS011;13413;52.336;21.200;2022-07-24T01:22:01;23.00;;;20.70;;
25509;SDS011;13413;52.336;21.200;2022-07-24T01:25:21;14.20;;;12.90;;
25509;SDS011;13413;52.336;21.200;2022-07-24T01:28:40;12.10;;;9.70;;
25509;SDS011;13413;52.336;21.200;2022-07-24T01:31:59;12.40;;;8.70;;
25509;SDS011;13413;52.336;21.200;2022-07-24T01:35:18;9.70;;;8.60;;
25509;SDS011;13413;52.336;21.200;2022-07-24T01:38:40;9.20;;;8.30;;
25509;SDS011;13413;52.336;21.200;2022-07-24T01:42:00;8.60;;;7.80;;
25509;SDS011;13413;52.336;21.200;2022-07-24T01:45:20;8.30;;;7.40;;
25509;SDS011;13413;52.336;21.200;2022-07-24T01:48:56;9.10;;;7.30;;
25509;SDS011;13413;52.336;21.200;2022-07-24T01:52:15;5.80;;;5.20;;
25509;SDS011;13413;52.336;21.200;2022-07-24T01:55:35;5.10;;;4.60;;
25509;SDS011;13413;52.336;21.200;2022-07-24T01:58:54;6.80;;;4.20;;
25509;SDS011;13413;52.336;21.200;2022-07-24T02:02:13;7.40;;;3.90;;
25509;SDS011;13413;52.336;21.200;2022-07-24T02:09:06;8.40;;;3.30;;
25509;SDS011;13413;52.336;21.200;2022-07-24T02:15:46;5.40;;;3.90;;
25509;SDS011;13413;52.336;21.200;2022-07-24T02:19:05;5.50;;;3.40;;
25509;SDS011;13413;52.336;21.200;2022-07-24T02:22:24;5.60;;;3.80;;
25509;SDS011;13413;52.336;21.200;2022-07-24T02:25:45;4.30;;;3.70;;
25509;SDS011;13413;52.336;21.200;2022-07-24T02:29:07;4.50;;;3.50;;
25509;SDS011;13413;52.336;21.200;2022-07-24T02:32:27;4.80;;;3.80;;
25509;SDS011;13413;52.336;21.200;2022-07-24T02:35:47;7.00;;;3.90;;
25509;SDS011;13413;52.336;21.200;2022-07-24T02:39:06;4.00;;;3.50;;
25509;SDS011;13413;52.336;21.200;2022-07-24T02:42:26;8.20;;;3.80;;
25509;SDS011;13413;52.336;21.200;2022-07-24T02:45:46;6.80;;;3.80;;
25509;SDS011;13413;52.336;21.200;2022-07-24T02:49:06;3.80;;;3.30;;
25509;SDS011;13413;52.336;21.200;2022-07-24T02:52:25;4.30;;;3.30;;
25509;SDS011;13413;52.336;21.200;2022-07-24T02:55:44;3.70;;;3.00;;
25509;SDS011;13413;52.336;21.200;2022-07-24T02:59:04;6.40;;;3.80;;
25509;SDS011;13413;52.336;21.200;2022-07-24T03:02:23;4.80;;;3.80;;
25509;SDS011;13413;52.336;21.200;2022-07-24T03:05:43;8.40;;;3.40;;
25509;SDS011;13413;52.336;21.200;2022-07-24T03:09:03;7.20;;;3.30;;
25509;SDS011;13413;52.336;21.200;2022-07-24T03:12:24;7.80;;;3.70;;
25509;SDS011;13413;52.336;21.200;2022-07-24T03:15:44;8.30;;;3.50;;
25509;SDS011;13413;52.336;21.200;2022-07-24T03:19:04;4.20;;;3.60;;
25509;SDS011;13413;52.336;21.200;2022-07-24T03:22:23;8.20;;;4.00;;
25509;SDS011;13413;52.336;21.200;2022-07-24T03:25:42;6.00;;;3.60;;
25509;SDS011;13413;52.336;21.200;2022-07-24T03:29:01;3.50;;;3.20;;
25509;SDS011;13413;52.336;21.200;2022-07-24T03:32:20;8.20;;;3.50;;
25509;SDS011;13413;52.336;21.200;2022-07-24T03:35:39;7.50;;;3.40;;
25509;SDS011;13413;52.336;21.200;2022-07-24T03:39:01;6.80;;;4.00;;
25509;SDS011;13413;52.336;21.200;2022-07-24T03:42:22;4.40;;;3.70;;
25509;SDS011;13413;52.336;21.200;2022-07-24T03:49:04;5.70;;;4.50;;
25509;SDS011;13413;52.336;21.200;2022-07-24T03:52:24;7.00;;;6.10;;
25509;SDS011;13413;52.336;21.200;2022-07-24T03:55:46;8.30;;;4.70;;
25509;SDS011;13413;52.336;21.200;2022-07-24T03:59:05;8.00;;;4.80;;
25509;SDS011;13413;52.336;21.200;2022-07-24T04:02:25;9.30;;;4.30;;
25509;SDS011;13413;52.336;21.200;2022-07-24T04:09:05;6.50;;;3.80;;
25509;SDS011;13413;52.336;21.200;2022-07-24T04:12:26;6.80;;;3.80;;
25509;SDS011;13413;52.336;21.200;2022-07-24T04:15:45;6.30;;;4.30;;
25509;SDS011;13413;52.336;21.200;2022-07-24T04:19:04;11.50;;;7.50;;
25509;SDS011;13413;52.336;21.200;2022-07-24T04:22:24;7.40;;;4.70;;
25509;SDS011;13413;52.336;21.200;2022-07-24T04:25:44;17.10;;;5.80;;
25509;SDS011;13413;52.336;21.200;2022-07-24T04:29:04;8.80;;;4.30;;
25509;SDS011;13413;52.336;21.200;2022-07-24T04:32:23;11.10;;;4.80;;
25509;SDS011;13413;52.336;21.200;2022-07-24T04:35:43;10.00;;;4.60;;
25509;SDS011;13413;52.336;21.200;2022-07-24T04:39:03;6.90;;;4.30;;
25509;SDS011;13413;52.336;21.200;2022-07-24T04:42:23;9.50;;;3.70;;
25509;SDS011;13413;52.336;21.200;2022-07-24T04:45:44;3.70;;;3.00;;
25509;SDS011;13413;52.336;21.200;2022-07-24T04:49:03;5.20;;;3.80;;
25509;SDS011;13413;52.336;21.200;2022-07-24T04:52:22;4.90;;;3.60;;
25509;SDS011;13413;52.336;21.200;2022-07-24T04:55:41;5.30;;;3.10;;
25509;SDS011;13413;52.336;21.200;2022-07-24T04:59:00;5.20;;;2.90;;
25509;SDS011;13413;52.336;21.200;2022-07-24T05:02:19;6.10;;;3.80;;
25509;SDS011;13413;52.336;21.200;2022-07-24T05:05:38;4.10;;;3.40;;
25509;SDS011;13413;52.336;21.200;2022-07-24T05:08:57;6.60;;;3.30;;
25509;SDS011;13413;52.336;21.200;2022-07-24T05:12:16;7.90;;;3.30;;
25509;SDS011;13413;52.336;21.200;2022-07-24T05:15:35;3.90;;;3.00;;
25509;SDS011;13413;52.336;21.200;2022-07-24T05:18:54;4.90;;;3.20;;
25509;SDS011;13413;52.336;21.200;2022-07-24T05:22:14;8.00;;;3.20;;
25509;SDS011;13413;52.336;21.200;2022-07-24T05:25:33;5.40;;;2.70;;
25509;SDS011;13413;52.336;21.200;2022-07-24T05:28:53;4.40;;;3.40;;
25509;SDS011;13413;52.336;21.200;2022-07-24T05:32:14;5.90;;;3.00;;
25509;SDS011;13413;52.336;21.200;2022-07-24T05:35:34;5.10;;;2.90;;
25509;SDS011;13413;52.336;21.200;2022-07-24T05:38:54;6.40;;;2.90;;
25509;SDS011;13413;52.336;21.200;2022-07-24T05:42:14;4.80;;;2.80;;
25509;SDS011;13413;52.336;21.200;2022-07-24T05:45:33;5.20;;;2.90;;
25509;SDS011;13413;52.336;21.200;2022-07-24T05:48:52;3.40;;;2.40;;
25509;SDS011;13413;52.336;21.200;2022-07-24T05:52:11;6.60;;;3.00;;
25509;SDS011;13413;52.336;21.200;2022-07-24T05:55:30;6.80;;;6.20;;
25509;SDS011;13413;52.336;21.200;2022-07-24T05:58:49;6.10;;;3.30;;
25509;SDS011;13413;52.336;21.200;2022-07-24T06:02:09;5.20;;;2.80;;
25509;SDS011;13413;52.336;21.200;2022-07-24T06:05:29;5.40;;;2.50;;
25509;SDS011;13413;52.336;21.200;2022-07-24T06:08:50;3.90;;;2.00;;
25509;SDS011;13413;52.336;21.200;2022-07-24T06:12:09;3.80;;;2.20;;
25509;SDS011;13413;52.336;21.200;2022-07-24T06:15:29;5.00;;;2.60;;
25509;SDS011;13413;52.336;21.200;2022-07-24T06:18:49;6.40;;;1.90;;
25509;SDS011;13413;52.336;21.200;2022-07-24T06:22:10;3.80;;;2.00;;
25509;SDS011;13413;52.336;21.200;2022-07-24T06:25:29;6.70;;;2.20;;
25509;SDS011;13413;52.336;21.200;2022-07-24T06:28:48;5.60;;;2.20;;
25509;SDS011;13413;52.336;21.200;2022-07-24T06:32:08;2.60;;;1.70;;
25509;SDS011;13413;52.336;21.200;2022-07-24T06:35:29;4.40;;;1.90;;
25509;SDS011;13413;52.336;21.200;2022-07-24T06:38:48;6.30;;;2.80;;
25509;SDS011;13413;52.336;21.200;2022-07-24T06:42:07;6.00;;;2.00;;
25509;SDS011;13413;52.336;21.200;2022-07-24T06:45:26;4.80;;;2.20;;
25509;SDS011;13413;52.336;21.200;2022-07-24T06:48:46;8.50;;;2.10;;
25509;SDS011;13413;52.336;21.200;2022-07-24T06:52:05;5.80;;;2.10;;
25509;SDS011;13413;52.336;21.200;2022-07-24T06:55:24;4.30;;;2.00;;
25509;SDS011;13413;52.336;21.200;2022-07-24T06:58:43;6.10;;;1.90;;
25509;SDS011;13413;52.336;21.200;2022-07-24T07:02:03;5.50;;;2.20;;
25509;SDS011;13413;52.336;21.200;2022-07-24T07:05:21;3.60;;;1.90;;
25509;SDS011;13413;52.336;21.200;2022-07-24T07:08:40;3.30;;;1.90;;
25509;SDS011;13413;52.336;21.200;2022-07-24T07:12:00;3.40;;;2.00;;
25509;SDS011;13413;52.336;21.200;2022-07-24T07:15:20;5.40;;;1.70;;
25509;SDS011;13413;52.336;21.200;2022-07-24T07:18:40;3.60;;;2.00;;
25509;SDS011;13413;52.336;21.200;2022-07-24T07:21:59;3.00;;;1.70;;
25509;SDS011;13413;52.336;21.200;2022-07-24T07:28:52;2.50;;;1.80;;
25509;SDS011;13413;52.336;21.200;2022-07-24T07:32:13;3.00;;;1.90;;
25509;SDS011;13413;52.336;21.200;2022-07-24T07:35:33;6.40;;;2.50;;
25509;SDS011;13413;52.336;21.200;2022-07-24T07:38:51;4.80;;;1.70;;
25509;SDS011;13413;52.336;21.200;2022-07-24T07:42:10;4.00;;;1.90;;
25509;SDS011;13413;52.336;21.200;2022-07-24T07:45:30;1.80;;;1.40;;
25509;SDS011;13413;52.336;21.200;2022-07-24T07:48:50;6.10;;;2.50;;
25509;SDS011;13413;52.336;21.200;2022-07-24T07:52:09;6.00;;;1.60;;
25509;SDS011;13413;52.336;21.200;2022-07-24T07:55:28;2.40;;;1.40;;
25509;SDS011;13413;52.336;21.200;2022-07-24T07:58:48;2.70;;;1.90;;
25509;SDS011;13413;52.336;21.200;2022-07-24T08:02:07;8.00;;;3.50;;
25509;SDS011;13413;52.336;21.200;2022-07-24T08:05:27;4.80;;;1.80;;
25509;SDS011;13413;52.336;21.200;2022-07-24T08:08:46;2.60;;;1.50;;
25509;SDS011;13413;52.336;21.200;2022-07-24T08:12:06;2.60;;;1.70;;
25509;SDS011;13413;52.336;21.200;2022-07-24T08:15:25;4.40;;;1.60;;
25509;SDS011;13413;52.336;21.200;2022-07-24T08:18:44;3.20;;;1.50;;
25509;SDS011;13413;52.336;21.200;2022-07-24T08:22:04;3.60;;;1.60;;
25509;SDS011;13413;52.336;21.200;2022-07-24T08:25:23;5.50;;;1.50;;
25509;SDS011;13413;52.336;21.200;2022-07-24T08:28:42;3.20;;;1.60;;
25509;SDS011;13413;52.336;21.200;2022-07-24T08:32:03;4.70;;;1.70;;
25509;SDS011;13413;52.336;21.200;2022-07-24T08:35:30;3.00;;;1.30;;
25509;SDS011;13413;52.336;21.200;2022-07-24T08:38:48;4.80;;;1.70;;
25509;SDS011;13413;52.336;21.200;2022-07-24T08:42:08;3.10;;;1.90;;
25509;SDS011;13413;52.336;21.200;2022-07-24T08:45:27;3.50;;;1.80;;
25509;SDS011;13413;52.336;21.200;2022-07-24T08:48:51;2.20;;;1.40;;
25509;SDS011;13413;52.336;21.200;2022-07-24T08:52:13;3.20;;;2.10;;
25509;SDS011;13413;52.336;21.200;2022-07-24T08:55:33;1.70;;;1.40;;
25509;SDS011;13413;52.336;21.200;2022-07-24T08:58:54;3.30;;;2.00;;
25509;SDS011;13413;52.336;21.200;2022-07-24T09:02:14;2.00;;;1.40;;
25509;SDS011;13413;52.336;21.200;2022-07-24T09:05:32;2.50;;;1.60;;
25509;SDS011;13413;52.336;21.200;2022-07-24T09:09:09;3.90;;;1.60;;
25509;SDS011;13413;52.336;21.200;2022-07-24T09:12:31;3.40;;;1.90;;
25509;SDS011;13413;52.336;21.200;2022-07-24T09:15:51;4.10;;;1.60;;
25509;SDS011;13413;52.336;21.200;2022-07-24T09:19:12;2.30;;;1.40;;
25509;SDS011;13413;52.336;21.200;2022-07-24T09:22:34;4.20;;;1.70;;
25509;SDS011;13413;52.336;21.200;2022-07-24T09:25:55;2.10;;;1.60;;
25509;SDS011;13413;52.336;21.200;2022-07-24T09:29:14;3.00;;;1.80;;
25509;SDS011;13413;52.336;21.200;2022-07-24T09:32:35;1.40;;;1.30;;
25509;SDS011;13413;52.336;21.200;2022-07-24T09:35:54;4.50;;;1.80;;
25509;SDS011;13413;52.336;21.200;2022-07-24T09:39:17;2.70;;;1.50;;
25509;SDS011;13413;52.336;21.200;2022-07-24T09:42:37;3.00;;;1.70;;
25509;SDS011;13413;52.336;21.200;2022-07-24T09:45:58;5.50;;;2.00;;
25509;SDS011;13413;52.336;21.200;2022-07-24T09:49:22;2.10;;;1.60;;
25509;SDS011;13413;52.336;21.200;2022-07-24T09:52:42;3.50;;;1.70;;
25509;SDS011;13413;52.336;21.200;2022-07-24T09:56:05;4.10;;;1.80;;
25509;SDS011;13413;52.336;21.200;2022-07-24T09:59:26;2.90;;;1.40;;
25509;SDS011;13413;52.336;21.200;2022-07-24T10:02:49;2.50;;;1.60;;
25509;SDS011;13413;52.336;21.200;2022-07-24T10:06:13;2.10;;;1.70;;
25509;SDS011;13413;52.336;21.200;2022-07-24T10:09:38;2.50;;;2.00;;
25509;SDS011;13413;52.336;21.200;2022-07-24T10:13:00;2.90;;;2.20;;
25509;SDS011;13413;52.336;21.200;2022-07-24T10:16:29;3.20;;;1.90;;
25509;SDS011;13413;52.336;21.200;2022-07-24T10:23:14;3.20;;;2.30;;
25509;SDS011;13413;52.336;21.200;2022-07-24T10:26:42;2.80;;;2.00;;
25509;SDS011;13413;52.336;21.200;2022-07-24T10:30:06;5.10;;;2.00;;
25509;SDS011;13413;52.336;21.200;2022-07-24T10:33:27;2.50;;;2.30;;
25509;SDS011;13413;52.336;21.200;2022-07-24T10:36:51;3.70;;;2.70;;
25509;SDS011;13413;52.336;21.200;2022-07-24T10:40:23;4.00;;;2.40;;
25509;SDS011;13413;52.336;21.200;2022-07-24T10:43:57;6.10;;;2.50;;
25509;SDS011;13413;52.336;21.200;2022-07-24T10:47:30;4.30;;;2.30;;
25509;SDS011;13413;52.336;21.200;2022-07-24T10:51:00;3.90;;;2.50;;
25509;SDS011;13413;52.336;21.200;2022-07-24T10:54:31;3.90;;;2.40;;
25509;SDS011;13413;52.336;21.200;2022-07-24T10:57:53;2.60;;;2.30;;
25509;SDS011;13413;52.336;21.200;2022-07-24T11:04:27;2.00;;;1.90;;
25509;SDS011;13413;52.336;21.200;2022-07-24T11:11:41;3.10;;;2.80;;
25509;SDS011;13413;52.336;21.200;2022-07-24T11:15:20;2.80;;;2.30;;
25509;SDS011;13413;52.336;21.200;2022-07-24T11:18:39;5.10;;;3.00;;
25509;SDS011;13413;52.336;21.200;2022-07-24T11:22:04;4.70;;;3.30;;
25509;SDS011;13413;52.336;21.200;2022-07-24T11:25:25;5.00;;;3.00;;
25509;SDS011;13413;52.336;21.200;2022-07-24T11:28:57;3.80;;;3.40;;
25509;SDS011;13413;52.336;21.200;2022-07-24T11:32:28;4.20;;;3.00;;
25509;SDS011;13413;52.336;21.200;2022-07-24T11:35:48;3.30;;;2.60;;
25509;SDS011;13413;52.336;21.200;2022-07-24T11:39:08;3.70;;;3.30;;
25509;SDS011;13413;52.336;21.200;2022-07-24T11:42:28;3.40;;;3.10;;
25509;SDS011;13413;52.336;21.200;2022-07-24T11:45:52;4.10;;;3.50;;
25509;SDS011;13413;52.336;21.200;2022-07-24T11:52:32;3.40;;;2.70;;
25509;SDS011;13413;52.336;21.200;2022-07-24T11:56:03;3.40;;;2.90;;
25509;SDS011;13413;52.336;21.200;2022-07-24T11:59:25;3.20;;;3.00;;
25509;SDS011;13413;52.336;21.200;2022-07-24T12:02:46;4.70;;;2.80;;
25509;SDS011;13413;52.336;21.200;2022-07-24T12:06:12;4.60;;;3.10;;
25509;SDS011;13413;52.336;21.200;2022-07-24T12:13:00;4.90;;;3.80;;
25509;SDS011;13413;52.336;21.200;2022-07-24T12:16:23;3.60;;;3.00;;
25509;SDS011;13413;52.336;21.200;2022-07-24T12:19:51;3.20;;;2.80;;
25509;SDS011;13413;52.336;21.200;2022-07-24T12:26:31;2.80;;;2.50;;
25509;SDS011;13413;52.336;21.200;2022-07-24T12:29:52;2.80;;;2.60;;
25509;SDS011;13413;52.336;21.200;2022-07-24T12:33:18;2.40;;;2.20;;
25509;SDS011;13413;52.336;21.200;2022-07-24T12:36:39;3.40;;;2.90;;
25509;SDS011;13413;52.336;21.200;2022-07-24T12:39:59;3.90;;;2.50;;
25509;SDS011;13413;52.336;21.200;2022-07-24T12:43:19;2.90;;;2.70;;
25509;SDS011;13413;52.336;21.200;2022-07-24T12:46:39;3.20;;;2.80;;
25509;SDS011;13413;52.336;21.200;2022-07-24T12:50:10;4.60;;;2.90;;
25509;SDS011;13413;52.336;21.200;2022-07-24T12:53:32;2.90;;;2.70;;
25509;SDS011;13413;52.336;21.200;2022-07-24T12:56:54;2.50;;;2.30;;
25509;SDS011;13413;52.336;21.200;2022-07-24T13:00:15;2.90;;;2.60;;
25509;SDS011;13413;52.336;21.200;2022-07-24T13:03:37;3.10;;;2.50;;
25509;SDS011;13413;52.336;21.200;2022-07-24T13:06:56;3.20;;;2.40;;
25509;SDS011;13413;52.336;21.200;2022-07-24T13:10:18;4.40;;;2.70;;
25509;SDS011;13413;52.336;21.200;2022-07-24T13:13:36;4.00;;;2.60;;
25509;SDS011;13413;52.336;21.200;2022-07-24T13:17:01;5.00;;;3.00;;
25509;SDS011;13413;52.336;21.200;2022-07-24T13:20:23;5.70;;;2.70;;
25509;SDS011;13413;52.336;21.200;2022-07-24T13:23:44;3.10;;;2.10;;
25509;SDS011;13413;52.336;21.200;2022-07-24T13:27:03;3.60;;;2.70;;
25509;SDS011;13413;52.336;21.200;2022-07-24T13:30:24;4.00;;;2.50;;
25509;SDS011;13413;52.336;21.200;2022-07-24T13:33:43;1.90;;;1.80;;
25509;SDS011;13413;52.336;21.200;2022-07-24T13:37:02;2.60;;;2.20;;
25509;SDS011;13413;52.336;21.200;2022-07-24T13:40:21;2.60;;;2.00;;
25509;SDS011;13413;52.336;21.200;2022-07-24T13:43:40;1.90;;;1.80;;
25509;SDS011;13413;52.336;21.200;2022-07-24T13:46:59;3.30;;;2.30;;
25509;SDS011;13413;52.336;21.200;2022-07-24T13:50:20;2.80;;;1.90;;
25509;SDS011;13413;52.336;21.200;2022-07-24T13:53:39;2.40;;;2.00;;
25509;SDS011;13413;52.336;21.200;2022-07-24T13:56:58;3.30;;;1.90;;
25509;SDS011;13413;52.336;21.200;2022-07-24T14:00:17;2.20;;;1.80;;
25509;SDS011;13413;52.336;21.200;2022-07-24T14:03:38;2.00;;;1.70;;
25509;SDS011;13413;52.336;21.200;2022-07-24T14:06:58;1.80;;;1.70;;
25509;SDS011;13413;52.336;21.200;2022-07-24T14:10:18;2.80;;;2.20;;
25509;SDS011;13413;52.336;21.200;2022-07-24T14:13:38;2.20;;;2.00;;
25509;SDS011;13413;52.336;21.200;2022-07-24T14:16:59;2.30;;;1.70;;
25509;SDS011;13413;52.336;21.200;2022-07-24T14:20:18;2.80;;;2.30;;
25509;SDS011;13413;52.336;21.200;2022-07-24T14:23:39;2.70;;;2.50;;
25509;SDS011;13413;52.336;21.200;2022-07-24T14:26:59;2.40;;;2.20;;
25509;SDS011;13413;52.336;21.200;2022-07-24T14:30:21;2.80;;;2.10;;
25509;SDS011;13413;52.336;21.200;2022-07-24T14:33:41;2.20;;;2.00;;
25509;SDS011;13413;52.336;21.200;2022-07-24T14:37:00;2.30;;;2.10;;
25509;SDS011;13413;52.336;21.200;2022-07-24T14:40:18;2.30;;;2.10;;
25509;SDS011;13413;52.336;21.200;2022-07-24T14:43:38;2.10;;;1.90;;
25509;SDS011;13413;52.336;21.200;2022-07-24T14:46:58;2.70;;;2.30;;
25509;SDS011;13413;52.336;21.200;2022-07-24T14:50:18;2.40;;;2.20;;
25509;SDS011;13413;52.336;21.200;2022-07-24T14:53:38;2.20;;;2.10;;
25509;SDS011;13413;52.336;21.200;2022-07-24T14:56:58;3.80;;;1.90;;
25509;SDS011;13413;52.336;21.200;2022-07-24T15:00:17;1.90;;;1.80;;
25509;SDS011;13413;52.336;21.200;2022-07-24T15:06:58;2.20;;;2.10;;
25509;SDS011;13413;52.336;21.200;2022-07-24T15:10:19;2.90;;;2.10;;
25509;SDS011;13413;52.336;21.200;2022-07-24T15:13:38;2.30;;;2.10;;
25509;SDS011;13413;52.336;21.200;2022-07-24T15:16:57;2.80;;;2.20;;
25509;SDS011;13413;52.336;21.200;2022-07-24T15:20:18;2.60;;;2.40;;
25509;SDS011;13413;52.336;21.200;2022-07-24T15:23:38;2.70;;;2.40;;
25509;SDS011;13413;52.336;21.200;2022-07-24T15:26:58;2.40;;;2.20;;
25509;SDS011;13413;52.336;21.200;2022-07-24T15:30:18;3.00;;;2.00;;
25509;SDS011;13413;52.336;21.200;2022-07-24T15:33:38;2.30;;;2.10;;
25509;SDS011;13413;52.336;21.200;2022-07-24T15:36:57;2.20;;;2.10;;
25509;SDS011;13413;52.336;21.200;2022-07-24T15:40:16;2.40;;;2.20;;
25509;SDS011;13413;52.336;21.200;2022-07-24T15:43:36;2.50;;;2.30;;
25509;SDS011;13413;52.336;21.200;2022-07-24T15:46:57;2.40;;;2.10;;
25509;SDS011;13413;52.336;21.200;2022-07-24T15:50:17;2.40;;;2.20;;
25509;SDS011;13413;52.336;21.200;2022-07-24T15:53:39;1.90;;;1.80;;
25509;SDS011;13413;52.336;21.200;2022-07-24T15:56:58;2.10;;;2.00;;
25509;SDS011;13413;52.336;21.200;2022-07-24T16:00:17;3.30;;;2.00;;
25509;SDS011;13413;52.336;21.200;2022-07-24T16:03:36;2.60;;;2.40;;
25509;SDS011;13413;52.336;21.200;2022-07-24T16:06:57;3.60;;;2.70;;
25509;SDS011;13413;52.336;21.200;2022-07-24T16:10:24;2.20;;;2.00;;
25509;SDS011;13413;52.336;21.200;2022-07-24T16:13:43;8.80;;;2.30;;
25509;SDS011;13413;52.336;21.200;2022-07-24T16:17:03;2.30;;;2.10;;
25509;SDS011;13413;52.336;21.200;2022-07-24T16:20:24;3.60;;;2.00;;
25509;SDS011;13413;52.336;21.200;2022-07-24T16:23:44;2.40;;;2.20;;
25509;SDS011;13413;52.336;21.200;2022-07-24T16:27:04;3.20;;;2.70;;
25509;SDS011;13413;52.336;21.200;2022-07-24T16:30:23;2.90;;;2.40;;
25509;SDS011;13413;52.336;21.200;2022-07-24T16:33:43;2.60;;;2.40;;
25509;SDS011;13413;52.336;21.200;2022-07-24T16:37:03;3.50;;;2.60;;
25509;SDS011;13413;52.336;21.200;2022-07-24T16:40:24;4.40;;;2.80;;
25509;SDS011;13413;52.336;21.200;2022-07-24T16:43:45;3.00;;;2.70;;
25509;SDS011;13413;52.336;21.200;2022-07-24T16:47:04;3.50;;;3.10;;
25509;SDS011;13413;52.336;21.200;2022-07-24T16:50:24;2.80;;;2.60;;
25509;SDS011;13413;52.336;21.200;2022-07-24T16:53:43;3.10;;;2.80;;
25509;SDS011;13413;52.336;21.200;2022-07-24T16:57:02;4.30;;;2.70;;
25509;SDS011;13413;52.336;21.200;2022-07-24T17:00:21;2.90;;;2.60;;
25509;SDS011;13413;52.336;21.200;2022-07-24T17:03:42;3.60;;;2.60;;
25509;SDS011;13413;52.336;21.200;2022-07-24T17:07:01;3.60;;;3.00;;
25509;SDS011;13413;52.336;21.200;2022-07-24T17:10:21;4.60;;;2.90;;
25509;SDS011;13413;52.336;21.200;2022-07-24T17:13:42;4.40;;;4.00;;
25509;SDS011;13413;52.336;21.200;2022-07-24T17:17:01;4.70;;;2.90;;
25509;SDS011;13413;52.336;21.200;2022-07-24T17:20:20;3.00;;;2.80;;
25509;SDS011;13413;52.336;21.200;2022-07-24T17:23:39;4.60;;;2.90;;
25509;SDS011;13413;52.336;21.200;2022-07-24T17:26:59;3.70;;;2.40;;
25509;SDS011;13413;52.336;21.200;2022-07-24T17:30:22;2.90;;;2.10;;
25509;SDS011;13413;52.336;21.200;2022-07-24T17:33:42;2.70;;;2.40;;
25509;SDS011;13413;52.336;21.200;2022-07-24T17:37:01;4.40;;;2.50;;
25509;SDS011;13413;52.336;21.200;2022-07-24T17:40:20;3.10;;;2.80;;
25509;SDS011;13413;52.336;21.200;2022-07-24T17:43:40;3.40;;;2.90;;
25509;SDS011;13413;52.336;21.200;2022-07-24T17:47:00;3.40;;;3.00;;
25509;SDS011;13413;52.336;21.200;2022-07-24T17:50:20;3.00;;;2.50;;
25509;SDS011;13413;52.336;21.200;2022-07-24T17:53:39;4.00;;;2.50;;
25509;SDS011;13413;52.336;21.200;2022-07-24T17:56:59;2.50;;;2.30;;
25509;SDS011;13413;52.336;21.200;2022-07-24T18:00:19;5.40;;;2.60;;
25509;SDS011;13413;52.336;21.200;2022-07-24T18:03:39;2.80;;;2.50;;
25509;SDS011;13413;52.336;21.200;2022-07-24T18:06:58;4.40;;;2.60;;
25509;SDS011;13413;52.336;21.200;2022-07-24T18:10:17;2.50;;;2.30;;
25509;SDS011;13413;52.336;21.200;2022-07-24T18:13:36;5.50;;;2.80;;
25509;SDS011;13413;52.336;21.200;2022-07-24T18:16:55;2.40;;;2.20;;
25509;SDS011;13413;52.336;21.200;2022-07-24T18:20:15;2.80;;;2.40;;
25509;SDS011;13413;52.336;21.200;2022-07-24T18:23:34;4.30;;;2.50;;
25509;SDS011;13413;52.336;21.200;2022-07-24T18:26:56;3.80;;;2.60;;
25509;SDS011;13413;52.336;21.200;2022-07-24T18:30:15;4.50;;;2.90;;
25509;SDS011;13413;52.336;21.200;2022-07-24T18:33:35;4.00;;;2.50;;
25509;SDS011;13413;52.336;21.200;2022-07-24T18:36:54;3.70;;;2.60;;
25509;SDS011;13413;52.336;21.200;2022-07-24T18:40:16;3.40;;;2.50;;
25509;SDS011;13413;52.336;21.200;2022-07-24T18:43:36;2.90;;;2.60;;
25509;SDS011;13413;52.336;21.200;2022-07-24T18:46:56;4.00;;;2.90;;
25509;SDS011;13413;52.336;21.200;2022-07-24T18:53:36;4.00;;;3.00;;
25509;SDS011;13413;52.336;21.200;2022-07-24T18:56:56;5.10;;;3.20;;
25509;SDS011;13413;52.336;21.200;2022-07-24T19:00:15;4.70;;;3.10;;
25509;SDS011;13413;52.336;21.200;2022-07-24T19:03:34;2.90;;;2.60;;
25509;SDS011;13413;52.336;21.200;2022-07-24T19:06:53;3.90;;;2.90;;
25509;SDS011;13413;52.336;21.200;2022-07-24T19:10:13;6.50;;;3.30;;
25509;SDS011;13413;52.336;21.200;2022-07-24T19:13:33;5.20;;;3.20;;
25509;SDS011;13413;52.336;21.200;2022-07-24T19:16:52;3.60;;;3.10;;
25509;SDS011;13413;52.336;21.200;2022-07-24T19:20:13;8.90;;;3.30;;
25509;SDS011;13413;52.336;21.200;2022-07-24T19:23:32;4.60;;;3.30;;
25509;SDS011;13413;52.336;21.200;2022-07-24T19:26:53;3.80;;;3.50;;
25509;SDS011;13413;52.336;21.200;2022-07-24T19:30:12;6.40;;;3.50;;
25509;SDS011;13413;52.336;21.200;2022-07-24T19:33:33;5.90;;;4.00;;
25509;SDS011;13413;52.336;21.200;2022-07-24T19:36:53;4.10;;;3.60;;
25509;SDS011;13413;52.336;21.200;2022-07-24T19:40:12;4.40;;;4.00;;
25509;SDS011;13413;52.336;21.200;2022-07-24T19:43:31;3.80;;;3.50;;
25509;SDS011;13413;52.336;21.200;2022-07-24T19:46:50;5.80;;;3.60;;
25509;SDS011;13413;52.336;21.200;2022-07-24T19:50:10;8.10;;;4.20;;
25509;SDS011;13413;52.336;21.200;2022-07-24T19:53:29;7.50;;;3.70;;
25509;SDS011;13413;52.336;21.200;2022-07-24T19:56:49;5.10;;;4.00;;
25509;SDS011;13413;52.336;21.200;2022-07-24T20:00:09;4.80;;;3.60;;
25509;SDS011;13413;52.336;21.200;2022-07-24T20:03:30;5.10;;;3.20;;
25509;SDS011;13413;52.336;21.200;2022-07-24T20:06:50;10.10;;;4.50;;
25509;SDS011;13413;52.336;21.200;2022-07-24T20:10:10;4.70;;;4.20;;
25509;SDS011;13413;52.336;21.200;2022-07-24T20:13:30;4.80;;;4.20;;
25509;SDS011;13413;52.336;21.200;2022-07-24T20:16:49;6.00;;;4.10;;
25509;SDS011;13413;52.336;21.200;2022-07-24T20:20:09;5.50;;;3.90;;
25509;SDS011;13413;52.336;21.200;2022-07-24T20:27:07;9.80;;;3.70;;
25509;SDS011;13413;52.336;21.200;2022-07-24T20:30:43;6.50;;;4.10;;
25509;SDS011;13413;52.336;21.200;2022-07-24T20:34:02;4.10;;;3.40;;
25509;SDS011;13413;52.336;21.200;2022-07-24T20:37:22;5.40;;;3.80;;